createdAt,value
2022-08-23T00:02:39.340Z,6.80
2022-08-23T00:05:44.622Z,7.65
2022-08-23T00:08:48.869Z,7.20
2022-08-23T00:12:09.404Z,7.12
2022-08-23T00:15:15.146Z,7.78
2022-08-23T00:18:18.403Z,7.00
2022-08-23T00:21:20.606Z,7.82
2022-08-23T00:24:24.490Z,8.73
2022-08-23T00:27:26.961Z,11.40
2022-08-23T00:30:29.713Z,6.05
2022-08-23T00:33:31.797Z,8.35
2022-08-23T00:36:35.377Z,6.53
2022-08-23T00:39:39.115Z,7.62
2022-08-23T00:43:09.181Z,8.48
2022-08-23T00:46:41.576Z,7.85
2022-08-23T00:49:48.446Z,8.38
2022-08-23T00:53:12.009Z,7.62
2022-08-23T00:56:17.170Z,6.43
2022-08-23T00:59:19.501Z,12.10
2022-08-23T01:02:22.251Z,8.40
2022-08-23T01:05:31.224Z,7.10
2022-08-23T01:08:35.478Z,4.60
2022-08-23T01:11:47.758Z,5.53
2022-08-23T01:15:09.065Z,4.97
2022-08-23T01:18:15.257Z,7.47
2022-08-23T01:21:45.446Z,5.25
2022-08-23T01:25:07.023Z,7.10
2022-08-23T01:28:10.862Z,7.97
2022-08-23T01:31:13.730Z,6.85
2022-08-23T01:34:18.282Z,6.18
2022-08-23T01:37:21.230Z,7.40
2022-08-23T01:40:24.688Z,8.52
2022-08-23T01:43:27.437Z,8.00
2022-08-23T01:46:29.942Z,7.30
2022-08-23T01:49:33.073Z,9.20
2022-08-23T01:52:36.957Z,8.32
2022-08-23T01:55:42.148Z,7.70
2022-08-23T01:58:44.478Z,7.03
2022-08-23T02:01:47.561Z,7.82
2022-08-23T02:04:50.261Z,6.90
2022-08-23T02:07:52.417Z,6.80
2022-08-23T02:10:55.692Z,7.03
2022-08-23T02:14:01.036Z,7.87
2022-08-23T02:17:05.139Z,8.10
2022-08-23T02:20:08.817Z,8.48
2022-08-23T02:23:11.594Z,10.52
2022-08-23T02:26:13.962Z,9.02
2022-08-23T02:29:18.866Z,11.25
2022-08-23T02:32:21.285Z,9.60
2022-08-23T02:35:24.532Z,11.25
2022-08-23T02:38:27.120Z,9.73
2022-08-23T02:41:30.026Z,10.75
2022-08-23T02:44:34.639Z,10.50
2022-08-23T02:47:37.029Z,11.43
2022-08-23T02:50:40.294Z,12.95
2022-08-23T02:53:42.964Z,9.85
2022-08-23T02:56:45.522Z,12.80
2022-08-23T02:59:47.605Z,10.25
2022-08-23T03:02:49.994Z,9.88
2022-08-23T03:05:52.977Z,9.43
2022-08-23T03:08:56.674Z,11.07
2022-08-23T03:11:58.863Z,10.95
2022-08-23T03:15:01.302Z,10.98
2022-08-23T03:18:03.477Z,11.48
2022-08-23T03:21:07.406Z,10.25
2022-08-23T03:24:10.474Z,10.55
2022-08-23T03:27:13.785Z,11.55
2022-08-23T03:30:19.680Z,12.00
2022-08-23T03:33:24.429Z,10.40
2022-08-23T03:36:27.883Z,10.45
2022-08-23T03:39:31.320Z,13.85
2022-08-23T03:42:33.819Z,11.12
2022-08-23T03:45:37.903Z,16.08
2022-08-23T03:48:41.330Z,12.48
2022-08-23T03:51:43.857Z,14.87
2022-08-23T03:54:45.954Z,12.00
2022-08-23T03:57:49.060Z,13.20
2022-08-23T04:00:51.567Z,14.10
2022-08-23T04:03:54.068Z,14.57
2022-08-23T04:06:56.345Z,13.98
2022-08-23T04:09:58.887Z,14.15
2022-08-23T04:13:01.404Z,15.57
2022-08-23T04:16:04.974Z,13.18
2022-08-23T04:19:09.726Z,17.15
2022-08-23T04:25:33.711Z,12.68
2022-08-23T04:28:37.861Z,13.45
2022-08-23T04:31:41.770Z,15.05
2022-08-23T04:34:45.676Z,14.55
2022-08-23T04:37:54.029Z,14.52
2022-08-23T04:41:15.822Z,14.20
2022-08-23T04:44:18.685Z,11.43
2022-08-23T04:47:21.412Z,14.50
2022-08-23T04:50:24.606Z,14.32
2022-08-23T04:53:29.181Z,14.25
2022-08-23T04:56:32.213Z,17.02
2022-08-23T04:59:35.415Z,17.55
2022-08-23T05:02:38.154Z,16.17
2022-08-23T05:05:41.850Z,14.57
2022-08-23T05:08:44.253Z,15.02
2022-08-23T05:11:46.606Z,13.95
2022-08-23T05:14:48.943Z,13.80
2022-08-23T05:17:52.087Z,14.63
2022-08-23T05:20:54.546Z,17.55
2022-08-23T05:24:00.342Z,12.85
2022-08-23T05:27:04.677Z,13.02
2022-08-23T05:30:08.170Z,15.35
2022-08-23T05:33:17.319Z,14.87
2022-08-23T05:36:21.449Z,27.60
2022-08-23T05:39:32.822Z,18.48
2022-08-23T05:42:39.260Z,17.23
2022-08-23T05:45:41.769Z,16.37
2022-08-23T05:48:50.921Z,15.18
2022-08-23T05:51:53.257Z,16.37
2022-08-23T05:54:55.798Z,16.85
2022-08-23T05:57:58.583Z,17.80
2022-08-23T06:01:01.938Z,15.75
2022-08-23T06:04:06.986Z,18.60
2022-08-23T06:07:11.032Z,17.67
2022-08-23T06:10:15.955Z,17.58
2022-08-23T06:13:19.178Z,18.20
2022-08-23T06:16:26.330Z,19.17
2022-08-23T06:19:28.586Z,17.15
2022-08-23T06:22:32.218Z,17.75
2022-08-23T06:25:38.917Z,20.40
2022-08-23T06:28:50.207Z,19.87
2022-08-23T06:31:53.970Z,21.87
2022-08-23T06:35:27.817Z,22.20
2022-08-23T06:38:21.629Z,24.33
2022-08-23T06:41:24.238Z,19.40
2022-08-23T06:44:27.483Z,25.42
2022-08-23T06:47:31.578Z,24.77
2022-08-23T06:50:34.091Z,19.37
2022-08-23T06:53:40.618Z,19.05
2022-08-23T06:56:44.468Z,22.35
2022-08-23T06:59:48.729Z,21.20
2022-08-23T07:02:51.133Z,17.25
2022-08-23T07:05:57.695Z,16.60
2022-08-23T07:09:00.890Z,19.17
2022-08-23T07:12:03.719Z,16.05
2022-08-23T07:15:06.613Z,15.73
2022-08-23T07:18:11.014Z,22.02
2022-08-23T07:21:16.321Z,15.63
2022-08-23T07:24:21.594Z,15.05
2022-08-23T07:27:24.321Z,14.80
2022-08-23T07:30:27.461Z,19.02
2022-08-23T07:33:29.662Z,15.60
2022-08-23T07:36:34.620Z,16.05
2022-08-23T07:39:37.158Z,17.27
2022-08-23T07:42:44.066Z,18.87
2022-08-23T07:45:48.787Z,15.00
2022-08-23T07:48:54.853Z,17.62
2022-08-23T07:51:58.797Z,15.43
2022-08-23T07:55:01.794Z,16.17
2022-08-23T07:58:04.282Z,15.48
2022-08-23T08:01:21.970Z,23.48
2022-08-23T08:04:24.426Z,16.62
2022-08-23T08:07:27.581Z,14.82
2022-08-23T08:10:36.743Z,15.75
2022-08-23T08:13:43.525Z,16.67
2022-08-23T08:16:48.842Z,25.27
2022-08-23T08:19:51.794Z,16.85
2022-08-23T08:23:00.778Z,18.77
2022-08-23T08:26:08.010Z,17.05
2022-08-23T08:29:11.976Z,13.90
2022-08-23T08:32:17.510Z,13.73
2022-08-23T08:35:20.205Z,19.67
2022-08-23T08:38:23.113Z,11.25
2022-08-23T08:42:04.308Z,13.05
2022-08-23T08:45:12.317Z,15.13
2022-08-23T08:48:22.147Z,16.08
2022-08-23T08:51:58.805Z,13.55
2022-08-23T08:55:24.625Z,13.50
2022-08-23T08:58:40.102Z,18.27
2022-08-23T09:01:42.604Z,14.32
2022-08-23T09:04:48.224Z,13.60
2022-08-23T09:08:25.014Z,15.63
2022-08-23T09:12:05.088Z,12.90
2022-08-23T09:15:28.665Z,12.82
2022-08-23T09:18:34.194Z,17.55
2022-08-23T09:21:49.447Z,13.62
2022-08-23T09:24:51.913Z,15.15
2022-08-23T09:27:56.075Z,15.07
2022-08-23T09:30:59.539Z,11.60
2022-08-23T09:34:02.328Z,12.82
2022-08-23T09:37:09.837Z,20.48
2022-08-23T09:40:38.843Z,13.75
2022-08-23T09:43:47.138Z,9.88
2022-08-23T09:46:49.876Z,11.65
2022-08-23T09:49:54.550Z,10.07
2022-08-23T09:53:14.405Z,11.20
2022-08-23T09:56:24.400Z,8.00
2022-08-23T09:59:27.411Z,16.33
2022-08-23T10:02:35.269Z,10.25
2022-08-23T10:05:40.371Z,10.93
2022-08-23T10:08:55.245Z,10.95
2022-08-23T10:12:01.041Z,9.52
2022-08-23T10:15:06.773Z,8.07
2022-08-23T10:18:16.956Z,9.57
2022-08-23T10:21:25.453Z,6.55
2022-08-23T10:24:53.021Z,8.52
2022-08-23T10:28:48.137Z,9.02
2022-08-23T10:32:16.218Z,8.13
2022-08-23T10:35:30.549Z,6.95
2022-08-23T10:38:50.733Z,6.07
2022-08-23T10:42:02.950Z,7.50
2022-08-23T10:45:08.508Z,7.28
2022-08-23T10:48:17.074Z,8.48
2022-08-23T10:51:31.535Z,7.90
2022-08-23T10:54:59.374Z,8.73
2022-08-23T10:58:06.163Z,6.57
2022-08-23T11:01:12.648Z,5.62
2022-08-23T11:04:36.589Z,6.03
2022-08-23T11:10:52.807Z,6.72
2022-08-23T11:14:00.944Z,6.22
2022-08-23T11:17:28.559Z,6.18
2022-08-23T11:20:49.416Z,11.50
2022-08-23T11:23:59.574Z,9.10
2022-08-23T11:27:07.085Z,7.43
2022-08-23T11:30:32.645Z,6.43
2022-08-23T11:33:46.821Z,6.70
2022-08-23T11:37:20.374Z,8.02
2022-08-23T11:40:55.886Z,7.25
2022-08-23T11:44:03.280Z,6.20
2022-08-23T11:50:29.206Z,7.72
2022-08-23T11:53:50.777Z,5.80
2022-08-23T11:57:11.634Z,6.07
2022-08-23T12:00:41.517Z,6.43
2022-08-23T12:04:21.662Z,7.25
2022-08-23T12:07:55.284Z,9.07
2022-08-23T12:11:01.798Z,12.13
2022-08-23T12:14:32.679Z,12.52
2022-08-23T12:17:40.256Z,7.12
2022-08-23T12:20:48.185Z,11.98
2022-08-23T12:23:55.609Z,8.40
2022-08-23T12:27:23.932Z,6.97
2022-08-23T12:31:07.845Z,6.82
2022-08-23T12:34:51.601Z,7.87
2022-08-23T12:38:10.225Z,8.63
2022-08-23T12:41:17.621Z,8.18
2022-08-23T12:44:23.994Z,7.90
2022-08-23T12:47:27.797Z,8.38
2022-08-23T12:50:37.062Z,10.35
2022-08-23T12:53:45.628Z,7.45
2022-08-23T12:56:52.235Z,8.70
2022-08-23T13:00:17.564Z,8.70
2022-08-23T13:03:32.832Z,7.03
2022-08-23T13:06:42.272Z,8.85
2022-08-23T13:09:53.456Z,8.20
2022-08-23T13:12:57.574Z,10.70
2022-08-23T13:16:03.597Z,7.95
2022-08-23T13:19:38.194Z,7.35
2022-08-23T13:26:29.261Z,11.38
2022-08-23T13:29:32.451Z,8.23
2022-08-23T13:32:42.326Z,11.10
2022-08-23T13:35:47.184Z,10.50
2022-08-23T13:38:51.863Z,9.65
2022-08-23T13:41:55.583Z,8.57
2022-08-23T13:44:58.198Z,8.13
2022-08-23T13:48:06.540Z,8.85
2022-08-23T13:51:25.850Z,12.60
2022-08-23T13:54:30.033Z,10.52
